Forside
METAR-TAF:

METAR-TAF

Lufthavne :

Olieplatform

Sleipner, Norge

Breddekreds: 58-22-00N, længdekreds: 001-54-25E, højde: 50 m

Aktuelle vejr

Denne rapport blev lavet for 32 minutter siden, kl. 13:50 UTC
Vind 25 kt fra vestnordvest
Temperatur 7°C
Fugtighed 81%
Tryk 1027 hPa
Sigt 10 km eller mere

METAR: ENSL 311350Z AUTO 29025KT 9999NDV FEW030/// BKN045/// 07/04 Q1027 W05/S4

Tid: 16:22 (14:22 UTC)


TAF: fraværende

Vejrobservationer og prognoser fra mere end 4000 lufthavne (METAR og TAF).

De gule og røde prikker repræsenterer de meteorologiske stationer.

Flyt musen over at se navnet på stationen.

Så klik over at se vejr observationer og prognoser.

At skifte det kort: Klik på de grønne knapper med et sort kors for at zoome ind; på den grønne knap med en bindestreg for at zoome ud; eller på de grønne pile for tilstødende kort.


METAR-TAF: